Quetta Weather



Quetta's Current Weather

Temprature 6.5700000000001o clear sky

clear sky

Rain: 0 %

Min Temprature6.5700000000001o
Max Temprature6.5700000000001o
Humidity50
Wind Speed0.83 m/h
Sun Rise06:43:03
Sun Set17:48:12
Current Time: 28-Oct-2020 05:38:36
Lat/Lon: 30.2, 67.01




Quetta's Geo Location



Quetta's Weather Forecast

Time Overall Temp Min Temp Max Temp Humidity Wind Speed Rain
28-Oct-2020 (Wed)
08:00:00 clear sky 9.350 9.350 11.980 40 0.65 m/h 0 %
11:00:00 clear sky 15.630 15.630 18.050 27 2.66 m/h 0 %
14:00:00 clear sky 19.330 19.330 20.180 20 4.15 m/h 0 %
17:00:00 clear sky 18.100 18.100 18.190 22 5.55 m/h 0 %
20:00:00 clear sky 11.030 11.030 11.030 36 1.35 m/h 0 %
23:00:00 clear sky 8.550 8.550 8.550 43 0.44 m/h 0 %
29-Oct-2020 (Thu)
02:00:00 clear sky 6.990 6.990 6.990 47 0.87 m/h 0 %
05:00:00 clear sky 5.550 5.550 5.550 52 0.78 m/h 0 %
08:00:00 clear sky 11.080 11.080 11.080 36 0.62 m/h 0 %
11:00:00 clear sky 17.720 17.720 17.720 22 1.34 m/h 0 %
14:00:00 clear sky 20.150 20.150 20.150 19 2.49 m/h 0 %
17:00:00 clear sky 18.770 18.770 18.770 21 3.57 m/h 0 %
20:00:00 clear sky 10.200 10.200 10.200 38 0.61 m/h 0 %
23:00:00 clear sky 8.600 8.600 8.600 42 0.75 m/h 0 %
30-Oct-2020 (Fri)
02:00:00 clear sky 6.810 6.810 6.810 48 0.18 m/h 0 %
05:00:00 clear sky 5.640 5.640 5.640 51 0.79 m/h 0 %
08:00:00 clear sky 10.890 10.890 10.890 36 0.71 m/h 0 %
11:00:00 clear sky 17.930 17.930 17.930 22 1.64 m/h 0 %
14:00:00 clear sky 20.030 20.030 20.030 18 3.53 m/h 0 %
17:00:00 clear sky 18.380 18.380 18.380 21 3.36 m/h 0 %
20:00:00 clear sky 9.700 9.700 9.700 39 0.33 m/h 0 %
23:00:00 clear sky 8.160 8.160 8.160 43 0.6 m/h 0 %
31-Oct-2020 (Sat)
02:00:00 clear sky 6.480 6.480 6.480 48 0.5 m/h 0 %
05:00:00 clear sky 4.960 4.960 4.960 55 0.69 m/h 0 %
08:00:00 clear sky 9.780 9.780 9.780 39 0.51 m/h 0 %
11:00:00 clear sky 16.470 16.470 16.470 23 1.42 m/h 0 %
14:00:00 clear sky 18.690 18.690 18.690 18 2.66 m/h 0 %
17:00:00 clear sky 17.160 17.160 17.160 18 2.73 m/h 0 %
20:00:00 clear sky 8.880 8.880 8.880 35 0.81 m/h 0 %
23:00:00 clear sky 6.910 6.910 6.910 41 0.08 m/h 0 %
01-Nov-2020 (Sun)
02:00:00 clear sky 5.510 5.510 5.510 48 0.98 m/h 0 %
05:00:00 clear sky 5.120 5.120 5.120 51 1.38 m/h 0 %
08:00:00 clear sky 9.910 9.910 9.910 33 1.35 m/h 0 %
11:00:00 clear sky 18.060 18.060 18.060 18 1.55 m/h 0 %
14:00:00 clear sky 20.250 20.250 20.250 15 3.51 m/h 0 %
17:00:00 clear sky 17.820 17.820 17.820 17 3.09 m/h 0 %
20:00:00 clear sky 8.760 8.760 8.760 32 1.12 m/h 0 %
23:00:00 clear sky 6.860 6.860 6.860 41 0.42 m/h 0 %
02-Nov-2020 (Mon)
02:00:00 clear sky 5.390 5.390 5.390 45 0.91 m/h 0 %
05:00:00 clear sky 4.450 4.450 4.450 58 0.89 m/h 0 %

Famous Cities (60)